Missal, Brazil
Current Conditions -  °F | °C
As of 6:00 AM on Monday 26 Jan 2015 (Local Time) from SBFI Reporting Station
Clear Clear  
Wind Chill: 68°   Ceiling: Unl
Heat Index: 68°   Visibility: 6mi
Dew Point: 68°   Wind: 2mph
Humidity: 100%   Direction: 50°NE
Pressure: 29.85"   Gusts: NA
Location:  25.09°S, 54.25°W
Report Text: SBFI 260800Z 05002KT CAVOK 20/20 Q1011
Loading
Personal Weather Stations






























Interactive Weather Map New forecast layout! Learn more

10-Day Weather Forecast

Advertisements
Track Severe Weather on mobile